createdAt,value
2018-07-27T00:02:04.744Z,73.20
2018-07-27T00:05:10.039Z,73.50
2018-07-27T00:08:13.173Z,72.80
2018-07-27T00:11:16.409Z,73.10
2018-07-27T00:14:19.829Z,72.70
2018-07-27T00:17:22.985Z,73.30
2018-07-27T00:20:26.106Z,72.70
2018-07-27T00:23:29.325Z,72.30
2018-07-27T00:26:32.424Z,72.00
2018-07-27T00:29:35.571Z,73.00
2018-07-27T00:32:38.729Z,73.90
2018-07-27T00:35:41.874Z,74.30
2018-07-27T00:38:44.995Z,73.80
2018-07-27T00:41:48.230Z,74.70
2018-07-27T00:44:51.381Z,74.80
2018-07-27T00:47:54.541Z,73.80
2018-07-27T00:50:57.674Z,74.20
2018-07-27T00:54:00.729Z,75.10
2018-07-27T00:57:03.886Z,73.80
2018-07-27T01:00:07.151Z,73.60
2018-07-27T01:03:10.257Z,74.50
2018-07-27T01:06:13.485Z,74.00
2018-07-27T01:09:16.585Z,73.70
2018-07-27T01:12:19.776Z,75.30
2018-07-27T01:15:22.980Z,74.20
2018-07-27T01:18:26.051Z,75.00
2018-07-27T01:21:29.117Z,75.40
2018-07-27T01:24:32.228Z,75.50
2018-07-27T01:27:35.409Z,73.60
2018-07-27T01:30:38.531Z,74.50
2018-07-27T01:33:41.643Z,75.60
2018-07-27T01:36:44.831Z,73.90
2018-07-27T01:39:47.912Z,75.40
2018-07-27T01:42:50.977Z,74.30
2018-07-27T01:45:54.114Z,75.20
2018-07-27T01:48:57.108Z,73.20
2018-07-27T01:52:00.153Z,73.50
2018-07-27T01:55:03.261Z,73.50
2018-07-27T01:58:06.353Z,72.60
2018-07-27T02:01:09.457Z,73.40
2018-07-27T02:04:12.533Z,73.40
2018-07-27T02:07:15.605Z,74.70
2018-07-27T02:10:18.694Z,74.70
2018-07-27T02:13:21.879Z,74.90
2018-07-27T02:16:24.958Z,75.00
2018-07-27T02:19:29.025Z,76.20
2018-07-27T02:22:32.752Z,74.70
2018-07-27T02:25:37.252Z,76.40
2018-07-27T02:28:40.396Z,75.40
2018-07-27T02:31:44.980Z,74.60
2018-07-27T02:34:48.116Z,75.50
2018-07-27T02:37:54.456Z,75.80
2018-07-27T02:40:58.665Z,77.30
2018-07-27T02:44:01.778Z,76.40
2018-07-27T02:47:05.385Z,76.60
2018-07-27T02:50:08.724Z,76.80
2018-07-27T02:53:11.843Z,77.70
2018-07-27T02:56:14.909Z,76.80
2018-07-27T02:59:18.141Z,77.80
2018-07-27T03:02:21.339Z,77.60
2018-07-27T03:05:24.455Z,77.30
2018-07-27T03:08:27.720Z,78.70
2018-07-27T03:11:30.949Z,78.60
2018-07-27T03:14:34.073Z,78.90
2018-07-27T03:17:37.362Z,79.60
2018-07-27T03:20:40.473Z,77.80
2018-07-27T03:23:43.574Z,78.50
2018-07-27T03:26:47.017Z,78.70
2018-07-27T03:29:50.249Z,79.40
2018-07-27T03:32:53.465Z,79.20
2018-07-27T03:35:56.719Z,79.90
2018-07-27T03:39:02.281Z,79.90
2018-07-27T03:42:06.023Z,80.50
2018-07-27T03:45:09.277Z,79.60
2018-07-27T03:48:12.365Z,80.80
2018-07-27T03:51:16.285Z,80.70
2018-07-27T03:54:19.407Z,80.90
2018-07-27T03:57:22.476Z,81.30
2018-07-27T04:00:25.919Z,80.90
2018-07-27T04:03:28.954Z,81.60
2018-07-27T04:06:32.361Z,81.50
2018-07-27T04:09:35.536Z,81.50
2018-07-27T04:12:38.669Z,81.60
2018-07-27T04:15:41.826Z,82.00
2018-07-27T04:18:46.312Z,83.00
2018-07-27T04:24:52.957Z,82.80
2018-07-27T04:27:56.325Z,83.80
2018-07-27T04:30:59.368Z,84.30
2018-07-27T04:34:02.665Z,84.30
2018-07-27T04:37:05.761Z,83.80
2018-07-27T04:40:08.926Z,85.30
2018-07-27T04:43:12.093Z,86.80
2018-07-27T04:46:15.192Z,85.30
2018-07-27T04:49:18.351Z,86.20
2018-07-27T04:52:21.410Z,87.00
2018-07-27T04:55:24.512Z,87.70
2018-07-27T04:58:28.506Z,88.20
2018-07-27T05:01:31.680Z,89.20
2018-07-27T05:04:34.994Z,90.10
2018-07-27T05:07:38.057Z,90.60
2018-07-27T05:10:47.628Z,91.10
2018-07-27T05:13:50.810Z,92.20
2018-07-27T05:16:53.832Z,92.50
2018-07-27T05:19:56.916Z,93.20
2018-07-27T05:23:00.061Z,93.40
2018-07-27T05:26:03.365Z,94.20
2018-07-27T05:29:08.901Z,94.70
2018-07-27T05:32:12.034Z,95.50
2018-07-27T05:35:15.242Z,95.70
2018-07-27T05:38:18.340Z,95.80
2018-07-27T05:41:21.629Z,96.40
2018-07-27T05:44:25.085Z,96.70
2018-07-27T05:47:28.148Z,97.10
2018-07-27T05:50:38.049Z,97.80
2018-07-27T05:53:41.181Z,98.60
2018-07-27T05:56:44.389Z,99.20
2018-07-27T05:59:47.535Z,99.90
2018-07-27T06:02:50.812Z,99.90
2018-07-27T06:05:53.894Z,99.90
2018-07-27T06:08:57.658Z,99.90
2018-07-27T06:12:03.021Z,99.90
2018-07-27T06:18:10.533Z,99.90
2018-07-27T06:21:13.773Z,99.90
2018-07-27T06:24:16.857Z,99.90
2018-07-27T06:30:23.357Z,99.90
2018-07-27T06:33:26.618Z,99.90
2018-07-27T06:36:29.745Z,99.90
2018-07-27T06:39:32.813Z,99.90
2018-07-27T06:42:35.823Z,99.90
2018-07-27T06:45:39.045Z,99.90
2018-07-27T06:48:42.144Z,99.90
2018-07-27T06:51:45.109Z,99.90
2018-07-27T06:54:48.088Z,99.90
2018-07-27T06:57:51.438Z,99.90
2018-07-27T07:00:54.429Z,99.90
2018-07-27T07:03:57.482Z,99.90
2018-07-27T07:07:01.243Z,99.90
2018-07-27T07:10:04.636Z,99.90
2018-07-27T07:13:07.756Z,99.90
2018-07-27T07:16:10.968Z,99.90
2018-07-27T07:19:14.144Z,99.90
2018-07-27T07:22:17.115Z,99.90
2018-07-27T07:25:20.360Z,99.90
2018-07-27T07:28:23.213Z,99.20
2018-07-27T07:31:26.279Z,98.50
2018-07-27T07:34:29.247Z,98.70
2018-07-27T07:37:32.366Z,98.70
2018-07-27T07:40:35.468Z,98.30
2018-07-27T07:43:38.848Z,98.50
2018-07-27T07:46:41.929Z,98.10
2018-07-27T07:49:44.957Z,99.00
2018-07-27T07:52:47.937Z,97.20
2018-07-27T07:55:50.894Z,99.90
2018-07-27T07:58:53.844Z,99.90
2018-07-27T08:01:56.822Z,99.90
2018-07-27T08:04:59.917Z,98.00
2018-07-27T08:08:03.221Z,98.80
2018-07-27T08:11:06.496Z,99.30
2018-07-27T08:14:09.593Z,95.00
2018-07-27T08:17:12.764Z,98.50
2018-07-27T08:20:16.027Z,96.20
2018-07-27T08:23:19.348Z,95.40
2018-07-27T08:26:56.034Z,91.10
2018-07-27T08:29:59.285Z,93.40
2018-07-27T08:33:02.430Z,92.70
2018-07-27T08:36:05.818Z,88.70
2018-07-27T08:39:12.976Z,94.10
2018-07-27T08:42:16.178Z,94.00
2018-07-27T08:45:19.355Z,88.10
2018-07-27T08:48:22.485Z,89.40
2018-07-27T08:51:25.741Z,86.70
2018-07-27T08:54:29.125Z,91.70
2018-07-27T08:57:32.276Z,83.40
2018-07-27T09:00:51.509Z,76.40
2018-07-27T09:03:54.727Z,84.30
2018-07-27T09:06:57.775Z,78.80
2018-07-27T09:10:00.909Z,78.30
2018-07-27T09:13:04.164Z,73.90
2018-07-27T09:16:07.389Z,70.60
2018-07-27T09:19:10.537Z,67.70
2018-07-27T09:22:13.684Z,72.40
2018-07-27T09:25:17.141Z,73.10
2018-07-27T09:28:20.021Z,71.10
2018-07-27T09:31:23.015Z,71.50
2018-07-27T09:34:26.177Z,74.60
2018-07-27T09:37:29.144Z,73.30
2018-07-27T09:40:32.504Z,68.00
2018-07-27T09:46:38.878Z,66.80
2018-07-27T09:49:41.973Z,65.00
2018-07-27T09:52:45.038Z,68.40
2018-07-27T09:58:51.116Z,71.20
2018-07-27T10:01:54.257Z,66.30
2018-07-27T10:04:57.268Z,63.60
2018-07-27T10:08:00.468Z,63.80
2018-07-27T10:11:03.561Z,64.20
2018-07-27T10:14:06.665Z,65.10
2018-07-27T10:17:09.761Z,66.60
2018-07-27T10:20:12.813Z,65.80
2018-07-27T10:23:15.892Z,63.40
2018-07-27T10:26:19.025Z,65.00
2018-07-27T10:29:22.097Z,65.70
2018-07-27T10:32:25.370Z,66.50
2018-07-27T10:35:28.496Z,65.90
2018-07-27T10:38:31.616Z,63.50
2018-07-27T10:41:34.759Z,64.20
2018-07-27T10:44:37.853Z,63.20
2018-07-27T10:47:40.969Z,62.40
2018-07-27T10:50:44.078Z,61.30
2018-07-27T10:53:48.241Z,60.80
2018-07-27T10:56:51.453Z,66.80
2018-07-27T10:59:54.595Z,61.60
2018-07-27T11:02:57.798Z,61.70
2018-07-27T11:06:01.029Z,61.40
2018-07-27T11:09:06.769Z,60.80
2018-07-27T11:12:10.042Z,58.90
2018-07-27T11:15:13.160Z,60.00
2018-07-27T11:18:16.293Z,58.60
2018-07-27T11:21:19.519Z,58.60
2018-07-27T11:24:22.626Z,59.00
2018-07-27T11:27:25.793Z,56.90
2018-07-27T11:30:28.910Z,54.70
2018-07-27T11:33:32.312Z,58.10
2018-07-27T11:36:35.497Z,57.90
2018-07-27T11:39:38.654Z,57.40
2018-07-27T11:42:41.886Z,55.30
2018-07-27T11:45:45.058Z,57.60
2018-07-27T11:48:50.493Z,56.50
2018-07-27T11:51:53.652Z,53.80
2018-07-27T11:54:56.702Z,52.80
2018-07-27T11:57:59.791Z,51.90
2018-07-27T12:01:02.986Z,54.20
2018-07-27T12:04:06.198Z,51.40
2018-07-27T12:07:09.400Z,52.70
2018-07-27T12:10:12.480Z,51.80
2018-07-27T12:13:15.811Z,52.60
2018-07-27T12:16:18.927Z,51.50
2018-07-27T12:19:22.071Z,52.50
2018-07-27T12:22:25.188Z,53.00
2018-07-27T12:25:28.292Z,54.20
2018-07-27T12:28:31.397Z,52.10
2018-07-27T12:31:35.063Z,52.90
2018-07-27T12:34:39.079Z,52.10
2018-07-27T12:37:42.545Z,51.70
2018-07-27T12:40:46.034Z,52.00
2018-07-27T12:43:49.646Z,47.80
2018-07-27T12:46:53.155Z,48.70
2018-07-27T12:49:56.305Z,47.00
2018-07-27T12:52:59.441Z,50.60
2018-07-27T12:56:02.635Z,48.80
2018-07-27T12:59:05.854Z,46.10
2018-07-27T13:02:09.101Z,47.80
2018-07-27T13:05:12.262Z,45.90
2018-07-27T13:08:15.319Z,48.70
2018-07-27T13:11:18.410Z,47.80
2018-07-27T13:14:21.497Z,49.70
2018-07-27T13:17:24.586Z,47.30
2018-07-27T13:20:48.106Z,47.90
2018-07-27T13:23:59.445Z,46.50
2018-07-27T13:27:02.583Z,46.20
2018-07-27T13:30:06.186Z,47.40
2018-07-27T13:33:09.300Z,49.10
2018-07-27T13:36:12.368Z,48.10
2018-07-27T13:42:21.019Z,49.40
2018-07-27T13:45:24.180Z,46.60
2018-07-27T13:48:27.793Z,45.20
2018-07-27T13:51:31.400Z,45.80
2018-07-27T13:54:35.417Z,48.40
2018-07-27T13:57:39.078Z,47.30
2018-07-27T14:00:42.760Z,46.50
2018-07-27T14:03:46.518Z,46.80
2018-07-27T14:06:52.048Z,45.80
2018-07-27T14:09:55.524Z,46.50
2018-07-27T14:12:59.382Z,45.20
2018-07-27T14:16:03.703Z,46.00
2018-07-27T14:19:07.430Z,47.60
2018-07-27T14:22:11.543Z,45.50
2018-07-27T14:25:15.153Z,45.60
2018-07-27T14:28:18.694Z,46.20
2018-07-27T14:31:22.209Z,44.90
2018-07-27T14:34:25.511Z,46.10
2018-07-27T14:37:28.915Z,46.70
2018-07-27T14:40:32.461Z,44.60
2018-07-27T14:43:36.906Z,45.80
2018-07-27T14:46:40.240Z,46.50
2018-07-27T14:49:43.437Z,45.30
2018-07-27T14:52:47.050Z,43.80
2018-07-27T14:55:50.726Z,45.00
2018-07-27T14:58:53.935Z,44.90
2018-07-27T15:01:57.586Z,43.70
2018-07-27T15:05:01.392Z,43.80
2018-07-27T15:08:05.290Z,42.80
2018-07-27T15:11:08.460Z,44.30
2018-07-27T15:14:11.933Z,43.00
2018-07-27T15:17:16.199Z,41.90
2018-07-27T15:20:20.055Z,44.10
2018-07-27T15:23:23.316Z,44.60
2018-07-27T15:26:26.780Z,43.10
2018-07-27T15:29:30.312Z,45.30
2018-07-27T15:32:33.430Z,48.40
2018-07-27T15:35:37.586Z,45.40
2018-07-27T15:38:41.285Z,45.10
2018-07-27T15:41:44.848Z,44.40
2018-07-27T15:44:49.090Z,43.60
2018-07-27T15:47:52.833Z,43.60
2018-07-27T15:50:56.220Z,44.80
2018-07-27T15:53:59.446Z,44.10
2018-07-27T16:00:08.373Z,42.80
2018-07-27T16:03:11.590Z,45.00
2018-07-27T16:06:14.883Z,43.30
2018-07-27T16:09:18.339Z,43.90
2018-07-27T16:12:21.380Z,44.50
2018-07-27T16:15:24.559Z,45.40
2018-07-27T16:18:27.692Z,44.60
2018-07-27T16:21:32.547Z,45.30
2018-07-27T16:24:36.463Z,45.60
2018-07-27T16:27:40.003Z,45.30
2018-07-27T16:30:43.919Z,44.40
2018-07-27T16:33:47.375Z,46.20
2018-07-27T16:36:50.762Z,46.20
2018-07-27T16:39:54.254Z,46.30
2018-07-27T16:42:57.428Z,45.60
2018-07-27T16:46:00.843Z,45.50
2018-07-27T16:49:04.556Z,46.70
2018-07-27T16:52:07.862Z,46.30
2018-07-27T16:55:11.342Z,46.60
2018-07-27T16:58:14.457Z,47.50
2018-07-27T17:01:17.577Z,47.00
2018-07-27T17:04:20.879Z,47.40
2018-07-27T17:07:24.203Z,47.30
2018-07-27T17:10:27.785Z,47.20
2018-07-27T17:13:31.500Z,47.50
2018-07-27T17:16:35.018Z,46.40
2018-07-27T17:19:38.485Z,47.10
2018-07-27T17:22:41.946Z,47.20
2018-07-27T17:25:45.748Z,47.50
2018-07-27T17:28:50.417Z,47.60
2018-07-27T17:31:53.881Z,46.30
2018-07-27T17:34:57.832Z,46.10
2018-07-27T17:38:01.659Z,46.50
2018-07-27T17:41:05.872Z,46.30
2018-07-27T17:47:14.223Z,47.30
2018-07-27T17:50:18.040Z,46.50
2018-07-27T17:53:21.782Z,46.80
2018-07-27T17:56:25.217Z,47.20
2018-07-27T17:59:29.315Z,47.90
2018-07-27T18:02:33.280Z,48.00
2018-07-27T18:05:36.681Z,47.90
2018-07-27T18:08:40.333Z,49.00
2018-07-27T18:11:43.939Z,48.70
2018-07-27T18:14:47.952Z,49.90
2018-07-27T18:17:51.397Z,50.00
2018-07-27T18:20:54.768Z,49.00
2018-07-27T18:23:58.436Z,51.20
2018-07-27T18:27:01.759Z,49.00
2018-07-27T18:30:06.491Z,50.20
2018-07-27T18:33:09.885Z,51.00
2018-07-27T18:36:14.254Z,53.20
2018-07-27T18:39:17.618Z,52.90
2018-07-27T18:42:21.401Z,51.70
2018-07-27T18:45:25.261Z,52.00
2018-07-27T18:48:28.652Z,53.50
2018-07-27T18:51:32.199Z,52.90
2018-07-27T18:54:35.789Z,54.20
2018-07-27T18:57:39.306Z,55.10
2018-07-27T19:00:42.768Z,55.30
2018-07-27T19:03:46.723Z,55.60
2018-07-27T19:06:50.053Z,57.00
2018-07-27T19:09:53.571Z,56.80
2018-07-27T19:12:57.019Z,56.90
2018-07-27T19:16:00.541Z,58.00
2018-07-27T19:19:04.010Z,57.30
2018-07-27T19:22:08.041Z,58.00
2018-07-27T19:25:11.924Z,59.00
2018-07-27T19:28:15.449Z,57.70
2018-07-27T19:31:18.984Z,58.80
2018-07-27T19:34:22.497Z,58.20
2018-07-27T19:37:25.944Z,58.80
2018-07-27T19:40:29.668Z,59.30
2018-07-27T19:43:33.181Z,60.20
2018-07-27T19:46:36.898Z,60.10
2018-07-27T19:49:40.189Z,59.80
2018-07-27T19:52:43.598Z,59.20
2018-07-27T19:55:47.472Z,60.00
2018-07-27T19:58:51.014Z,60.70
2018-07-27T20:01:54.442Z,61.00
2018-07-27T20:04:57.656Z,60.20
2018-07-27T20:08:00.964Z,59.80
2018-07-27T20:11:04.490Z,59.50
2018-07-27T20:14:07.690Z,60.40
2018-07-27T20:17:11.052Z,60.50
2018-07-27T20:20:14.604Z,59.90
2018-07-27T20:23:17.871Z,60.40
2018-07-27T20:26:21.127Z,60.60
2018-07-27T20:29:24.391Z,60.10
2018-07-27T20:32:27.661Z,60.90
2018-07-27T20:35:30.948Z,60.30
2018-07-27T20:38:34.271Z,61.30
2018-07-27T20:41:37.625Z,60.90
2018-07-27T20:44:41.400Z,61.10
2018-07-27T20:47:44.629Z,61.30
2018-07-27T20:50:47.837Z,60.70
2018-07-27T20:53:51.108Z,60.90
2018-07-27T20:56:54.261Z,61.20
2018-07-27T20:59:57.432Z,60.70
2018-07-27T21:03:00.725Z,60.70
2018-07-27T21:06:03.951Z,60.40
2018-07-27T21:09:08.463Z,61.60
2018-07-27T21:12:11.641Z,62.00
2018-07-27T21:15:14.851Z,61.00
2018-07-27T21:18:18.010Z,61.90
2018-07-27T21:21:21.983Z,62.20
2018-07-27T21:24:25.217Z,62.30
2018-07-27T21:27:28.306Z,62.70
2018-07-27T21:30:31.559Z,62.40
2018-07-27T21:33:34.677Z,63.10
2018-07-27T21:36:37.923Z,62.40
2018-07-27T21:39:42.548Z,63.20
2018-07-27T21:42:45.947Z,63.80
2018-07-27T21:45:49.211Z,62.40
2018-07-27T21:48:52.514Z,63.90
2018-07-27T21:51:56.406Z,64.00
2018-07-27T21:55:04.644Z,63.80
2018-07-27T22:01:38.569Z,64.20
2018-07-27T22:05:15.415Z,64.40
2018-07-27T22:08:32.817Z,64.60
2018-07-27T22:11:37.254Z,65.00
2018-07-27T22:15:02.225Z,64.20
2018-07-27T22:18:06.938Z,64.60
2018-07-27T22:21:10.214Z,64.60
2018-07-27T22:24:13.544Z,64.70
2018-07-27T22:27:17.540Z,65.30
2018-07-27T22:30:20.853Z,64.30
2018-07-27T22:33:24.291Z,65.20
2018-07-27T22:36:33.662Z,65.50
2018-07-27T22:39:38.629Z,65.40
2018-07-27T22:43:30.718Z,66.20
2018-07-27T22:46:36.259Z,66.00
2018-07-27T22:49:56.224Z,66.30
2018-07-27T22:53:02.714Z,67.00
2018-07-27T23:07:04.062Z,65.10
2018-07-27T23:10:09.750Z,67.30
2018-07-27T23:13:14.791Z,67.90
2018-07-27T23:16:34.173Z,68.00
2018-07-27T23:19:37.535Z,68.70
2018-07-27T23:23:01.519Z,69.10
2018-07-27T23:26:05.172Z,68.30
2018-07-27T23:29:08.384Z,67.50
2018-07-27T23:32:11.686Z,69.10
2018-07-27T23:35:14.872Z,67.80
2018-07-27T23:38:18.199Z,68.00
2018-07-27T23:41:21.412Z,68.70
2018-07-27T23:44:24.663Z,68.90
2018-07-27T23:47:27.904Z,69.20
2018-07-27T23:50:31.155Z,69.50
2018-07-27T23:53:34.402Z,69.30
2018-07-27T23:56:37.774Z,69.80
2018-07-27T23:59:41.030Z,69.40
